Cozumel, Mexico

1:54 AM CDT on August 21, 2014 (GMT -0500)
ASRCZM | Change Station
CLOSE
Current Station
Personal Weather Station
Location: Cozumel, QUINTANA ROO
Elevation: 15 ft
Nearby Weather Stations

Elev 15 ft 20.51 °N, 86.93 °W | Updated 4 minutes ago

Partly Cloudy
Partly Cloudy
81.5 °F
Feels Like 90 °F
N
2.0
Wind Variable Wind from East
Gusts 5.0 mph

Today
High -- | Low -- °F
--% Chance of Precip.
Yesterday
High -- | Low -- °F
Precip. -- in
6:28 AM 7:12 PM
Waning Crescent, 16% visible
Pressure 30.04 in
Visibility 7.0 miles
Clouds Few 1800 ft
Heat Index 90 °F
Dew Point 79 °F
Humidity 91%
Rainfall 0.00 in
Snow Depth Not available.
UV 0.0 out of 12
Pollen Not available.
Air Quality Not available.
Flu Activity Not available.
METAR MMUN 210644Z 01003KT 7SM FEW018 27/22 A3004 RMK 8/500 CI

More Conditions Fewer Conditions

Pressure 30.04 in
Visibility 7.0 miles
Clouds Few 1800 ft
Heat Index 90 °F
Dew Point 79 °F
Humidity 91%
Rainfall 0.00 in
Snow Depth Not available.
UV 0.0 out of 12
Pollen Not available.
Air Quality Not available.
Flu Activity Not available.
METAR MMUN 210644Z 01003KT 7SM FEW018 27/22 A3004 RMK 8/500 CI

More Conditions Fewer Conditions

10-Day Weather Forecast

Almanac

Astronomy

Aug. 21, 2014 Rise Set
Actual Time 6:28 AM CDT 7:12 PM CDT
Civil Twilight 6:06 AM CDT 7:35 PM CDT
Nautical Twilight 5:39 AM CDT 8:01 PM CDT
Astronomical Twilight 5:12 AM CDT 8:29 PM CDT
Moon 3:11 AM CDT 4:30 PM CDT
Length of Visible Light 13h 29m
Length of Day
12h 43m
Tomorrow will be 1m 4s shorter.
Waning Crescent, 16% of the Moon is Illuminated
Today
Waning Crescent
Aug 25
New
Sep 2
First Quarter
Sep 8
Full
Sep 15
Last Quarter

Yesterday's Extremes

Country Highs Country Lows

Community

WunderPhotos

Upload Photos

1,745,858 photos uploaded!

Nearby

Snow Depth

Not available.

Earthquake Activity

City Distance Mag. Time & Date
No recent earthquake activity has been reported nearby.
Minimum magnitude displayed is 2.5.

Coastal Water Temperatures

Place Temperature
No Stations Reporting

Nearby Weather Stations